createdAt,value
2022-12-28T00:00:30.445Z,20.16
2022-12-28T00:03:03.350Z,20.15
2022-12-28T00:05:36.480Z,20.15
2022-12-28T00:08:09.587Z,20.14
2022-12-28T00:11:08.065Z,20.13
2022-12-28T00:13:16.445Z,20.13
2022-12-28T00:15:49.524Z,20.12
2022-12-28T00:18:22.559Z,20.11
2022-12-28T00:20:55.552Z,20.10
2022-12-28T00:23:28.435Z,20.10
2022-12-28T00:26:01.595Z,20.09
2022-12-28T00:28:34.463Z,20.08
2022-12-28T00:31:07.508Z,20.08
2022-12-28T00:33:40.593Z,20.07
2022-12-28T00:36:13.492Z,20.07
2022-12-28T00:38:46.586Z,20.06
2022-12-28T00:41:19.513Z,20.05
2022-12-28T00:43:52.607Z,20.05
2022-12-28T00:46:25.538Z,20.04
2022-12-28T00:48:58.598Z,20.03
2022-12-28T00:51:31.478Z,20.03
2022-12-28T00:54:04.524Z,20.03
2022-12-28T00:56:37.522Z,20.02
2022-12-28T00:59:10.586Z,20.01
2022-12-28T01:01:43.711Z,20.01
2022-12-28T01:04:16.492Z,20.01
2022-12-28T01:06:49.617Z,20.00
2022-12-28T01:09:22.548Z,20.00
2022-12-28T01:11:55.637Z,19.99
2022-12-28T01:14:28.598Z,19.99
2022-12-28T01:17:01.551Z,19.98
2022-12-28T01:19:34.552Z,19.98
2022-12-28T01:22:07.579Z,19.98
2022-12-28T01:24:40.642Z,19.98
2022-12-28T01:27:13.613Z,19.98
2022-12-28T01:29:46.686Z,19.97
2022-12-28T01:32:19.637Z,19.97
2022-12-28T01:34:52.581Z,19.97
2022-12-28T01:37:25.671Z,19.97
2022-12-28T01:39:58.671Z,19.96
2022-12-28T01:42:31.662Z,19.96
2022-12-28T01:45:04.707Z,19.96
2022-12-28T01:47:37.417Z,19.96
2022-12-28T01:50:10.607Z,19.95
2022-12-28T01:52:43.650Z,19.95
2022-12-28T01:55:16.556Z,19.95
2022-12-28T01:57:49.580Z,19.94
2022-12-28T02:00:22.696Z,19.94
2022-12-28T02:02:55.700Z,19.93
2022-12-28T02:05:28.604Z,19.93
2022-12-28T02:08:01.721Z,19.93
2022-12-28T02:10:41.475Z,19.92
2022-12-28T02:13:07.761Z,19.92
2022-12-28T02:15:40.696Z,19.91
2022-12-28T02:18:13.595Z,19.91
2022-12-28T02:20:46.623Z,19.90
2022-12-28T02:23:19.614Z,19.90
2022-12-28T02:25:52.658Z,19.89
2022-12-28T02:28:25.603Z,19.88
2022-12-28T02:30:58.724Z,19.88
2022-12-28T02:33:31.689Z,19.87
2022-12-28T02:36:04.371Z,19.87
2022-12-28T02:38:37.752Z,19.86
2022-12-28T02:41:10.648Z,19.86
2022-12-28T02:43:43.736Z,19.86
2022-12-28T02:46:16.796Z,19.85
2022-12-28T02:48:49.772Z,19.85
2022-12-28T02:51:22.736Z,19.84
2022-12-28T02:53:55.656Z,19.84
2022-12-28T02:56:28.685Z,19.84
2022-12-28T02:59:01.936Z,19.84
2022-12-28T03:01:35.935Z,19.83
2022-12-28T03:04:08.730Z,19.83
2022-12-28T03:06:44.688Z,19.83
2022-12-28T03:09:17.761Z,19.82
2022-12-28T03:11:50.756Z,19.82
2022-12-28T03:14:23.866Z,19.82
2022-12-28T03:16:56.842Z,19.81
2022-12-28T03:19:29.830Z,19.81
2022-12-28T03:22:02.716Z,19.81
2022-12-28T03:24:35.850Z,19.81
2022-12-28T03:27:08.818Z,19.80
2022-12-28T03:29:41.860Z,19.80
2022-12-28T03:32:14.756Z,19.80
2022-12-28T03:34:47.729Z,19.80
2022-12-28T03:37:20.891Z,19.79
2022-12-28T03:39:54.704Z,19.79
2022-12-28T03:42:27.846Z,19.79
2022-12-28T03:45:00.833Z,19.79
2022-12-28T03:47:33.811Z,19.78
2022-12-28T03:50:06.855Z,19.78
2022-12-28T03:52:39.762Z,19.77
2022-12-28T03:55:12.753Z,19.77
2022-12-28T03:57:45.795Z,19.77
2022-12-28T04:00:18.912Z,19.76
2022-12-28T04:02:51.993Z,19.76
2022-12-28T04:05:24.906Z,19.75
2022-12-28T04:07:57.834Z,19.75
2022-12-28T04:10:30.899Z,19.75
2022-12-28T04:13:03.844Z,19.74
2022-12-28T04:15:36.981Z,19.74
2022-12-28T04:18:09.949Z,19.73
2022-12-28T04:20:42.627Z,19.73
2022-12-28T04:23:15.885Z,19.72
2022-12-28T04:25:48.930Z,19.72
2022-12-28T04:28:21.869Z,19.72
2022-12-28T04:30:54.939Z,19.72
2022-12-28T04:33:27.966Z,19.71
2022-12-28T04:36:00.969Z,19.71
2022-12-28T04:38:34.079Z,19.71
2022-12-28T04:41:07.950Z,19.70
2022-12-28T04:43:40.959Z,19.70
2022-12-28T04:46:13.939Z,19.70
2022-12-28T04:48:46.980Z,19.70
2022-12-28T04:51:19.903Z,19.69
2022-12-28T04:53:52.981Z,19.69
2022-12-28T04:56:25.953Z,19.69
2022-12-28T04:58:58.585Z,19.69
2022-12-28T05:01:32.289Z,19.68
2022-12-28T05:04:05.067Z,19.68
2022-12-28T05:06:37.990Z,19.68
2022-12-28T05:09:10.894Z,19.68
2022-12-28T05:11:44.001Z,19.68
2022-12-28T05:14:16.894Z,19.67
2022-12-28T05:16:50.028Z,19.67
2022-12-28T05:19:22.936Z,19.67
2022-12-28T05:21:56.002Z,19.67
2022-12-28T05:24:28.972Z,19.67
2022-12-28T05:27:02.020Z,19.66
2022-12-28T05:29:35.018Z,19.66
2022-12-28T05:32:08.007Z,19.66
2022-12-28T05:34:41.047Z,19.66
2022-12-28T05:37:20.138Z,19.65
2022-12-28T05:39:46.910Z,19.65
2022-12-28T05:42:20.027Z,19.64
2022-12-28T05:45:06.991Z,19.64
2022-12-28T05:47:39.961Z,19.64
2022-12-28T05:50:12.680Z,19.64
2022-12-28T05:52:45.951Z,19.63
2022-12-28T05:55:19.021Z,19.63
2022-12-28T05:57:51.975Z,19.63
2022-12-28T06:00:25.070Z,19.62
2022-12-28T06:02:58.164Z,19.62
2022-12-28T06:05:31.108Z,19.62
2022-12-28T06:08:03.947Z,19.62
2022-12-28T06:10:37.081Z,19.61
2022-12-28T06:13:10.011Z,19.61
2022-12-28T06:15:43.009Z,19.61
2022-12-28T06:18:16.014Z,19.60
2022-12-28T06:20:53.735Z,19.60
2022-12-28T06:23:22.106Z,19.59
2022-12-28T06:25:55.076Z,19.59
2022-12-28T06:28:28.104Z,19.59
2022-12-28T06:31:01.083Z,19.59
2022-12-28T06:33:34.051Z,19.59
2022-12-28T06:36:07.034Z,19.58
2022-12-28T06:38:40.094Z,19.58
2022-12-28T06:41:14.493Z,19.58
2022-12-28T06:43:46.127Z,19.57
2022-12-28T06:46:19.219Z,19.57
2022-12-28T06:48:52.134Z,19.57
2022-12-28T06:51:25.072Z,19.57
2022-12-28T06:53:58.189Z,19.56
2022-12-28T06:56:31.103Z,19.56
2022-12-28T06:59:04.704Z,19.56
2022-12-28T07:01:37.184Z,19.55
2022-12-28T07:04:10.067Z,19.55
2022-12-28T07:06:43.124Z,19.55
2022-12-28T07:09:16.100Z,19.55
2022-12-28T07:11:49.075Z,19.55
2022-12-28T07:14:22.150Z,19.55
2022-12-28T07:16:55.102Z,19.55
2022-12-28T07:19:28.179Z,19.54
2022-12-28T07:22:01.093Z,19.54
2022-12-28T07:24:34.185Z,19.54
2022-12-28T07:27:07.159Z,19.54
2022-12-28T07:29:40.188Z,19.53
2022-12-28T07:32:13.160Z,19.53
2022-12-28T07:34:46.108Z,19.53
2022-12-28T07:37:19.289Z,19.52
2022-12-28T07:39:53.150Z,19.52
2022-12-28T07:42:26.203Z,19.52
2022-12-28T07:44:59.186Z,19.52
2022-12-28T07:47:31.814Z,19.51
2022-12-28T07:50:05.205Z,19.51
2022-12-28T07:52:52.126Z,19.51
2022-12-28T07:55:25.134Z,19.50
2022-12-28T07:58:01.176Z,19.50
2022-12-28T08:00:33.863Z,19.50
2022-12-28T08:03:07.346Z,19.50
2022-12-28T08:05:40.155Z,19.50
2022-12-28T08:08:13.180Z,19.49
2022-12-28T08:10:46.037Z,19.49
2022-12-28T08:13:19.264Z,19.49
2022-12-28T08:15:52.129Z,19.49
2022-12-28T08:18:24.978Z,19.48
2022-12-28T08:20:57.923Z,19.48
2022-12-28T08:23:31.255Z,19.48
2022-12-28T08:26:04.282Z,19.48
2022-12-28T08:28:37.240Z,19.48
2022-12-28T08:31:09.962Z,19.48
2022-12-28T08:33:43.107Z,19.48
2022-12-28T08:36:15.917Z,19.48
2022-12-28T08:38:49.004Z,19.48
2022-12-28T08:41:22.102Z,19.49
2022-12-28T08:43:55.311Z,19.49
2022-12-28T08:46:28.404Z,19.49
2022-12-28T08:49:01.227Z,19.49
2022-12-28T08:51:34.325Z,19.49
2022-12-28T08:54:07.248Z,19.48
2022-12-28T08:56:40.320Z,19.48
2022-12-28T08:59:13.239Z,19.47
2022-12-28T09:01:46.394Z,19.47
2022-12-28T09:04:19.219Z,19.47
2022-12-28T09:06:52.294Z,19.47
2022-12-28T09:09:25.391Z,19.47
2022-12-28T09:11:58.330Z,19.48
2022-12-28T09:14:31.113Z,19.48
2022-12-28T09:17:04.259Z,19.49
2022-12-28T09:19:37.411Z,19.49
2022-12-28T09:22:10.254Z,19.50
2022-12-28T09:24:43.316Z,19.51
2022-12-28T09:27:16.290Z,19.52
2022-12-28T09:29:49.307Z,19.54
2022-12-28T09:32:22.059Z,19.55
2022-12-28T09:34:55.246Z,19.56
2022-12-28T09:37:28.357Z,19.57
2022-12-28T09:40:01.977Z,19.58
2022-12-28T09:42:34.371Z,19.59
2022-12-28T09:45:07.352Z,19.60
2022-12-28T09:47:40.296Z,19.61
2022-12-28T09:50:13.048Z,19.62
2022-12-28T09:52:50.020Z,19.63
2022-12-28T09:55:22.066Z,19.64
2022-12-28T09:57:55.472Z,19.65
2022-12-28T10:00:29.321Z,19.67
2022-12-28T10:03:02.481Z,19.68
2022-12-28T10:05:35.397Z,19.69
2022-12-28T10:08:08.398Z,19.70
2022-12-28T10:10:46.710Z,19.71
2022-12-28T10:13:45.634Z,19.71
2022-12-28T10:15:47.392Z,19.72
2022-12-28T10:18:20.345Z,19.73
2022-12-28T10:20:53.136Z,19.74
2022-12-28T10:23:26.288Z,19.75
2022-12-28T10:25:59.395Z,19.76
2022-12-28T10:28:32.471Z,19.76
2022-12-28T10:31:05.408Z,19.77
2022-12-28T10:33:38.370Z,19.78
2022-12-28T10:36:11.507Z,19.78
2022-12-28T10:38:44.368Z,19.79
2022-12-28T10:41:17.411Z,19.79
2022-12-28T10:44:08.631Z,19.80
2022-12-28T10:46:23.434Z,19.80
2022-12-28T10:48:56.413Z,19.81
2022-12-28T10:51:29.490Z,19.81
2022-12-28T10:54:02.282Z,19.82
2022-12-28T10:56:35.316Z,19.82
2022-12-28T10:59:08.255Z,19.83
2022-12-28T11:01:41.806Z,19.83
2022-12-28T11:04:20.489Z,19.84
2022-12-28T11:06:53.450Z,19.84
2022-12-28T11:09:26.528Z,19.84
2022-12-28T11:11:59.558Z,19.84
2022-12-28T11:14:32.529Z,19.84
2022-12-28T11:17:05.429Z,19.84
2022-12-28T11:19:38.290Z,19.83
2022-12-28T11:22:11.482Z,19.83
2022-12-28T11:24:44.544Z,19.83
2022-12-28T11:27:17.495Z,19.82
2022-12-28T11:29:50.466Z,19.82
2022-12-28T11:32:23.478Z,19.82
2022-12-28T11:34:56.551Z,19.82
2022-12-28T11:37:29.345Z,19.81
2022-12-28T11:40:02.589Z,19.81
2022-12-28T11:42:40.355Z,19.82
2022-12-28T11:45:08.525Z,19.82
2022-12-28T11:47:41.222Z,19.82
2022-12-28T11:50:14.204Z,19.83
2022-12-28T11:52:47.311Z,19.83
2022-12-28T11:55:20.392Z,19.84
2022-12-28T11:57:53.602Z,19.85
2022-12-28T12:00:26.473Z,19.85
2022-12-28T12:02:59.286Z,19.86
2022-12-28T12:05:32.235Z,19.86
2022-12-28T12:08:05.346Z,19.87
2022-12-28T12:10:38.409Z,19.87
2022-12-28T12:13:11.288Z,19.88
2022-12-28T12:15:44.444Z,19.88
2022-12-28T12:18:17.439Z,19.89
2022-12-28T12:20:50.238Z,19.89
2022-12-28T12:23:23.577Z,19.90
2022-12-28T12:25:56.254Z,19.90
2022-12-28T12:28:29.348Z,19.91
2022-12-28T12:31:02.363Z,19.92
2022-12-28T12:33:35.633Z,19.92
2022-12-28T12:36:08.599Z,19.93
2022-12-28T12:38:41.564Z,19.94
2022-12-28T12:41:14.657Z,19.94
2022-12-28T12:43:47.489Z,19.95
2022-12-28T12:46:20.692Z,19.95
2022-12-28T12:48:53.688Z,19.95
2022-12-28T12:51:26.438Z,19.96
2022-12-28T12:53:59.307Z,19.96
2022-12-28T12:56:32.519Z,19.97
2022-12-28T12:59:05.437Z,19.97
2022-12-28T13:01:38.566Z,19.97
2022-12-28T13:04:11.380Z,19.98
2022-12-28T13:06:44.323Z,19.98
2022-12-28T13:09:20.211Z,19.99
2022-12-28T13:11:53.337Z,19.99
2022-12-28T13:14:26.655Z,19.99
2022-12-28T13:16:59.681Z,19.99
2022-12-28T13:19:32.725Z,19.99
2022-12-28T13:22:05.486Z,20.00
2022-12-28T13:24:38.463Z,20.00
2022-12-28T13:27:12.702Z,20.00
2022-12-28T13:29:44.414Z,20.00
2022-12-28T13:32:17.365Z,20.00
2022-12-28T13:34:50.640Z,20.01
2022-12-28T13:37:23.422Z,20.01
2022-12-28T13:39:56.679Z,20.01
2022-12-28T13:42:29.553Z,20.01
2022-12-28T13:45:02.664Z,20.01
2022-12-28T13:47:35.506Z,20.02
2022-12-28T13:50:08.571Z,20.02
2022-12-28T13:52:41.577Z,20.02
2022-12-28T13:55:14.421Z,20.02
2022-12-28T13:57:51.288Z,20.01
2022-12-28T14:00:20.651Z,20.01
2022-12-28T14:02:53.610Z,20.01
2022-12-28T14:05:29.425Z,20.01
2022-12-28T14:08:02.545Z,20.01
2022-12-28T14:10:35.539Z,20.02
2022-12-28T14:13:08.422Z,20.01
2022-12-28T14:15:41.774Z,20.02
2022-12-28T14:18:14.438Z,20.02
2022-12-28T14:20:47.416Z,20.02
2022-12-28T14:23:20.691Z,20.02
2022-12-28T14:25:53.700Z,20.02
2022-12-28T14:28:26.766Z,20.02
2022-12-28T14:30:59.828Z,20.02
2022-12-28T14:33:32.822Z,20.02
2022-12-28T14:36:05.644Z,20.02
2022-12-28T14:38:38.815Z,20.02
2022-12-28T14:41:11.771Z,20.02
2022-12-28T14:43:44.864Z,20.02
2022-12-28T14:46:17.940Z,20.02
2022-12-28T14:48:50.775Z,20.02
2022-12-28T14:51:23.943Z,20.02
2022-12-28T14:53:57.855Z,20.02
2022-12-28T14:56:30.593Z,20.03
2022-12-28T14:59:03.908Z,20.03
2022-12-28T15:01:36.952Z,20.03
2022-12-28T15:04:09.501Z,20.03
2022-12-28T15:06:42.888Z,20.03
2022-12-28T15:09:15.748Z,20.03
2022-12-28T15:11:48.856Z,20.03
2022-12-28T15:14:21.620Z,20.03
2022-12-28T15:16:54.796Z,20.03
2022-12-28T15:19:27.831Z,20.04
2022-12-28T15:22:00.903Z,20.04
2022-12-28T15:24:34.595Z,20.04
2022-12-28T15:27:06.744Z,20.04
2022-12-28T15:30:04.170Z,20.04
2022-12-28T15:32:12.746Z,20.04
2022-12-28T15:34:45.903Z,20.04
2022-12-28T15:37:18.826Z,20.04
2022-12-28T15:39:51.934Z,20.04
2022-12-28T15:42:24.900Z,20.04
2022-12-28T15:44:57.960Z,20.04
2022-12-28T15:47:30.886Z,20.04
2022-12-28T15:50:04.077Z,20.04
2022-12-28T15:52:37.829Z,20.04
2022-12-28T15:55:10.835Z,20.04
2022-12-28T15:57:43.961Z,20.04
2022-12-28T16:00:16.560Z,20.05
2022-12-28T16:02:49.805Z,20.05
2022-12-28T16:05:22.866Z,20.05
2022-12-28T16:07:55.896Z,20.05
2022-12-28T16:10:28.876Z,20.05
2022-12-28T16:13:01.694Z,20.05
2022-12-28T16:15:34.636Z,20.05
2022-12-28T16:18:07.811Z,20.06
2022-12-28T16:20:40.749Z,20.05
2022-12-28T16:23:13.657Z,20.06
2022-12-28T16:25:46.608Z,20.06
2022-12-28T16:28:19.628Z,20.06
2022-12-28T16:30:52.850Z,20.06
2022-12-28T16:33:25.963Z,20.07
2022-12-28T16:35:59.899Z,20.07
2022-12-28T16:38:31.919Z,20.07
2022-12-28T16:41:04.698Z,20.07
2022-12-28T16:43:38.045Z,20.07
2022-12-28T16:46:10.713Z,20.07
2022-12-28T16:48:44.036Z,20.07
2022-12-28T16:51:16.661Z,20.07
2022-12-28T16:53:49.660Z,20.08
2022-12-28T16:56:22.963Z,20.08
2022-12-28T16:58:56.121Z,20.08
2022-12-28T17:01:29.807Z,20.09
2022-12-28T17:04:04.298Z,20.09
2022-12-28T17:06:36.083Z,20.09
2022-12-28T17:09:09.173Z,20.09
2022-12-28T17:11:43.027Z,20.09
2022-12-28T17:14:29.184Z,20.09
2022-12-28T17:16:49.015Z,20.09
2022-12-28T17:19:21.967Z,20.10
2022-12-28T17:21:54.918Z,20.10
2022-12-28T17:24:28.081Z,20.10
2022-12-28T17:27:07.266Z,20.10
2022-12-28T17:29:33.831Z,20.10
2022-12-28T17:32:07.130Z,20.10
2022-12-28T17:34:40.097Z,20.10
2022-12-28T17:37:12.890Z,20.10
2022-12-28T17:39:45.738Z,20.10
2022-12-28T17:42:18.729Z,20.10
2022-12-28T17:44:51.902Z,20.10
2022-12-28T17:47:24.735Z,20.10
2022-12-28T17:49:58.095Z,20.09
2022-12-28T17:52:30.906Z,20.09
2022-12-28T17:55:03.941Z,20.09
2022-12-28T17:57:38.734Z,20.09
2022-12-28T18:00:09.774Z,20.09
2022-12-28T18:02:43.122Z,20.09
2022-12-28T18:05:16.176Z,20.09
2022-12-28T18:07:49.056Z,20.10
2022-12-28T18:10:21.951Z,20.10
2022-12-28T18:12:54.759Z,20.10
2022-12-28T18:15:32.931Z,20.11
2022-12-28T18:18:01.075Z,20.11
2022-12-28T18:20:33.924Z,20.11
2022-12-28T18:23:06.961Z,20.12
2022-12-28T18:25:39.984Z,20.12
2022-12-28T18:28:12.822Z,20.13
2022-12-28T18:30:45.879Z,20.13
2022-12-28T18:33:19.199Z,20.13
2022-12-28T18:35:51.838Z,20.14
2022-12-28T18:38:24.803Z,20.14
2022-12-28T18:40:58.108Z,20.14
2022-12-28T18:43:30.818Z,20.15
2022-12-28T18:46:03.902Z,20.15
2022-12-28T18:48:37.246Z,20.15
2022-12-28T18:51:10.120Z,20.16
2022-12-28T18:53:43.194Z,20.16
2022-12-28T18:56:15.842Z,20.16
2022-12-28T18:58:49.010Z,20.16
2022-12-28T19:03:55.502Z,20.17
2022-12-28T19:06:28.081Z,20.17
2022-12-28T19:09:01.002Z,20.18
2022-12-28T19:11:33.979Z,20.18
2022-12-28T19:14:07.044Z,20.18
2022-12-28T19:16:39.976Z,20.18
2022-12-28T19:19:12.889Z,20.19
2022-12-28T19:21:45.915Z,20.19
2022-12-28T19:24:19.014Z,20.19
2022-12-28T19:26:52.064Z,20.19
2022-12-28T19:29:24.916Z,20.19
2022-12-28T19:31:58.360Z,20.20
2022-12-28T19:34:31.085Z,20.20
2022-12-28T19:37:03.997Z,20.20
2022-12-28T19:39:36.910Z,20.20
2022-12-28T19:42:09.916Z,20.20
2022-12-28T19:44:42.909Z,20.21
2022-12-28T19:47:16.174Z,20.21
2022-12-28T19:49:49.196Z,20.21
2022-12-28T19:52:21.957Z,20.21
2022-12-28T19:54:55.200Z,20.21
2022-12-28T19:57:28.316Z,20.21
2022-12-28T20:00:01.090Z,20.22
2022-12-28T20:02:34.548Z,20.22
2022-12-28T20:05:06.971Z,20.22
2022-12-28T20:07:40.240Z,20.22
2022-12-28T20:10:12.947Z,20.22
2022-12-28T20:12:46.354Z,20.23
2022-12-28T20:15:18.966Z,20.23
2022-12-28T20:17:52.107Z,20.23
2022-12-28T20:20:27.493Z,20.23
2022-12-28T20:22:57.967Z,20.23
2022-12-28T20:25:31.383Z,20.23
2022-12-28T20:28:04.125Z,20.22
2022-12-28T20:30:36.960Z,20.22
2022-12-28T20:33:10.013Z,20.22
2022-12-28T20:35:43.308Z,20.22
2022-12-28T20:38:16.018Z,20.22
2022-12-28T20:40:49.175Z,20.22
2022-12-28T20:43:22.360Z,20.22
2022-12-28T20:45:55.308Z,20.22
2022-12-28T20:48:28.284Z,20.22
2022-12-28T20:51:04.270Z,20.22
2022-12-28T20:53:37.023Z,20.22
2022-12-28T20:56:10.327Z,20.22
2022-12-28T20:58:43.301Z,20.23
2022-12-28T21:01:16.465Z,20.23
2022-12-28T21:03:49.331Z,20.23
2022-12-28T21:06:22.318Z,20.23
2022-12-28T21:08:55.361Z,20.23
2022-12-28T21:11:28.443Z,20.23
2022-12-28T21:14:01.523Z,20.23
2022-12-28T21:16:38.356Z,20.23
2022-12-28T21:19:11.358Z,20.23
2022-12-28T21:21:44.326Z,20.23
2022-12-28T21:24:17.063Z,20.23
2022-12-28T21:26:50.343Z,20.23
2022-12-28T21:29:25.987Z,20.23
2022-12-28T21:31:56.179Z,20.23
2022-12-28T21:34:29.078Z,20.23
2022-12-28T21:37:02.457Z,20.23
2022-12-28T21:39:35.357Z,20.23
2022-12-28T21:42:08.086Z,20.23
2022-12-28T21:44:41.184Z,20.24
2022-12-28T21:47:14.105Z,20.24
2022-12-28T21:49:47.388Z,20.23
2022-12-28T21:52:20.373Z,20.24
2022-12-28T21:54:53.473Z,20.24
2022-12-28T21:57:26.237Z,20.24
2022-12-28T22:00:01.708Z,20.23
2022-12-28T22:02:32.528Z,20.22
2022-12-28T22:05:05.236Z,20.21
2022-12-28T22:07:38.100Z,20.20
2022-12-28T22:10:11.157Z,20.19
2022-12-28T22:12:44.122Z,20.18
2022-12-28T22:15:17.485Z,20.19
2022-12-28T22:17:50.409Z,20.20
2022-12-28T22:20:23.553Z,20.20
2022-12-28T22:22:56.333Z,20.20
2022-12-28T22:25:29.379Z,20.20
2022-12-28T22:28:02.448Z,20.20
2022-12-28T22:30:35.160Z,20.20
2022-12-28T22:33:08.285Z,20.20
2022-12-28T22:35:41.544Z,20.20
2022-12-28T22:38:14.413Z,20.20
2022-12-28T22:40:47.327Z,20.19
2022-12-28T22:43:20.562Z,20.19
2022-12-28T22:45:53.230Z,20.18
2022-12-28T22:48:26.337Z,20.17
2022-12-28T22:50:59.370Z,20.17
2022-12-28T22:53:32.391Z,20.16
2022-12-28T22:56:05.431Z,20.15
2022-12-28T22:58:38.314Z,20.14
2022-12-28T23:01:11.642Z,20.13
2022-12-28T23:03:44.509Z,20.12
2022-12-28T23:06:17.194Z,20.12
2022-12-28T23:08:50.504Z,20.11
2022-12-28T23:11:23.605Z,20.10
2022-12-28T23:13:56.541Z,20.09
2022-12-28T23:16:29.724Z,20.09
2022-12-28T23:19:02.585Z,20.08
2022-12-28T23:21:35.296Z,20.08
2022-12-28T23:24:08.604Z,20.07
2022-12-28T23:26:41.639Z,20.06
2022-12-28T23:29:14.507Z,20.05
2022-12-28T23:31:47.606Z,20.05
2022-12-28T23:34:20.586Z,20.04
2022-12-28T23:36:53.652Z,20.03
2022-12-28T23:39:26.560Z,20.03
2022-12-28T23:41:59.680Z,20.03
2022-12-28T23:44:32.584Z,20.02
2022-12-28T23:47:05.561Z,20.01
2022-12-28T23:49:52.630Z,20.01
2022-12-28T23:52:26.143Z,20.00
2022-12-28T23:54:58.641Z,20.00
2022-12-28T23:57:31.706Z,19.99
